Time;durP1;ratioP1;P1;durP2;ratioP2;P2;SDS_P1;SDS_P2;PMS_P1;PMS_P2;Temp;Humidity;BMP_temperature;BMP_pressure;BME280_temperature;BME280_humidity;BME280_pressure;Samples;Min_cycle;Max_cycle;Signal;HPM_P1;HPM_P2
2022/11/25 00:01:22;;;;;;;24.02;3.90;;;10.90;99.90;;;;;;5035235;28;20036;-72
2022/11/25 00:03:49;;;;;;;24.60;3.60;;;10.80;99.90;;;;;;5042811;28;20139;-71
2022/11/25 00:06:26;;;;;;;25.42;3.35;;;10.80;99.90;;;;;;5035550;28;20033;-71
2022/11/25 00:09:08;;;;;;;23.33;3.13;;;10.80;99.90;;;;;;5045681;28;20024;-72
2022/11/25 00:11:35;;;;;;;20.77;3.20;;;10.70;99.90;;;;;;5058070;28;20087;-72
2022/11/25 00:14:01;;;;;;;28.63;3.70;;;10.60;99.90;;;;;;5059528;28;20025;-71
2022/11/25 00:16:26;;;;;;;22.67;3.40;;;10.60;99.90;;;;;;5038883;28;20404;-72
2022/11/25 00:18:54;;;;;;;26.98;3.97;;;10.60;99.90;;;;;;5030075;28;20112;-71
2022/11/25 00:21:22;;;;;;;21.63;2.92;;;10.60;99.90;;;;;;5075269;28;20064;-71
2022/11/25 00:23:56;;;;;;;21.88;3.00;;;10.50;99.90;;;;;;5057121;28;20028;-71
2022/11/25 00:26:23;;;;;;;22.73;3.10;;;10.50;99.90;;;;;;5039044;28;20120;-72
2022/11/25 00:28:50;;;;;;;24.85;3.33;;;10.50;99.90;;;;;;5042120;28;20025;-72
2022/11/25 00:31:23;;;;;;;22.83;3.83;;;10.50;99.90;;;;;;5061443;28;20055;-72
2022/11/25 00:33:50;;;;;;;27.52;3.20;;;10.50;99.90;;;;;;5028319;28;20617;-71
2022/11/25 00:36:21;;;;;;;21.90;3.00;;;10.50;99.90;;;;;;5030671;28;20029;-72
2022/11/25 00:38:52;;;;;;;17.98;3.58;;;10.50;99.90;;;;;;5038492;28;20038;-71
2022/11/25 00:46:46;;;;;;;14.57;2.88;;;10.50;99.90;;;;;;5056232;28;20048;-73
2022/11/25 00:49:12;;;;;;;21.48;3.33;;;10.50;99.90;;;;;;5042311;28;20470;-73
2022/11/25 00:51:37;;;;;;;22.48;3.15;;;10.60;99.90;;;;;;5027175;28;20049;-72
2022/11/25 00:54:03;;;;;;;22.40;3.92;;;10.60;99.90;;;;;;5032208;28;20391;-72
2022/11/25 00:56:29;;;;;;;25.58;3.13;;;10.70;99.90;;;;;;5038523;28;20033;-72
2022/11/25 00:58:54;;;;;;;23.30;3.58;;;10.70;99.90;;;;;;5044235;28;20068;-71
2022/11/25 01:01:20;;;;;;;24.90;4.00;;;10.60;99.90;;;;;;5047270;28;20032;-72
2022/11/25 01:03:49;;;;;;;19.77;3.17;;;10.60;99.90;;;;;;5034676;28;20030;-72
2022/11/25 01:06:14;;;;;;;15.38;2.63;;;10.50;99.90;;;;;;5059395;28;20175;-72
2022/11/25 01:08:40;;;;;;;18.15;3.00;;;10.60;99.90;;;;;;5056611;28;20108;-72
2022/11/25 01:11:09;;;;;;;19.42;3.00;;;10.50;99.90;;;;;;5064856;28;20532;-72
2022/11/25 01:13:34;;;;;;;23.95;3.25;;;10.50;99.90;;;;;;5055207;28;20055;-72
2022/11/25 01:16:01;;;;;;;20.30;2.80;;;10.50;99.90;;;;;;5058824;28;20024;-72
2022/11/25 01:18:28;;;;;;;23.42;3.08;;;10.50;99.90;;;;;;5063574;28;20401;-72
2022/11/25 01:20:54;;;;;;;19.13;3.40;;;10.40;99.90;;;;;;5053777;28;20630;-71
2022/11/25 01:23:19;;;;;;;26.60;3.58;;;10.40;99.90;;;;;;5063827;28;20029;-71
2022/11/25 01:25:45;;;;;;;19.90;3.60;;;10.40;99.90;;;;;;5056433;28;20032;-72
2022/11/25 01:28:12;;;;;;;22.67;4.03;;;10.40;99.90;;;;;;5050538;28;20043;-71
2022/11/25 01:30:38;;;;;;;24.40;3.53;;;10.40;99.90;;;;;;5069495;28;20033;-72
2022/11/25 01:33:04;;;;;;;24.40;3.72;;;10.40;99.90;;;;;;5040125;28;20391;-72
2022/11/25 01:35:30;;;;;;;17.88;3.50;;;10.40;99.90;;;;;;5039283;28;20037;-72
2022/11/25 01:37:55;;;;;;;25.83;4.13;;;10.50;99.90;;;;;;5035310;28;20045;-72
2022/11/25 01:40:21;;;;;;;24.63;3.53;;;10.40;99.90;;;;;;5050351;28;20029;-72
2022/11/25 01:42:47;;;;;;;28.98;3.45;;;10.40;99.90;;;;;;5036634;28;20106;-70
2022/11/25 01:45:22;;;;;;;28.05;3.90;;;10.50;99.90;;;;;;5037340;28;20376;-71
2022/11/25 01:47:57;;;;;;;27.75;4.05;;;10.50;99.90;;;;;;5046296;28;20033;-71
2022/11/25 01:50:24;;;;;;;22.20;3.63;;;10.60;99.90;;;;;;5052037;28;20028;-72
2022/11/25 01:52:52;;;;;;;27.65;3.40;;;10.60;99.90;;;;;;5062927;28;20035;-72
2022/11/25 01:55:26;;;;;;;24.33;3.20;;;10.70;99.90;;;;;;5047043;28;20033;-73
2022/11/25 01:58:18;;;;;;;23.00;3.50;;;10.70;99.90;;;;;;5051500;28;20028;-72
2022/11/25 02:00:50;;;;;;;19.90;2.88;;;10.80;99.90;;;;;;5043911;28;20044;-72
2022/11/25 02:03:23;;;;;;;28.25;4.25;;;10.80;99.90;;;;;;5042730;28;20033;-73
2022/11/25 02:06:01;;;;;;;23.92;3.55;;;10.90;99.90;;;;;;5038349;28;20407;-74
2022/11/25 02:08:28;;;;;;;26.25;3.15;;;10.80;99.90;;;;;;5049823;28;20037;-71
2022/11/25 02:10:54;;;;;;;24.02;3.72;;;10.90;99.90;;;;;;5047364;28;20040;-71
2022/11/25 02:13:22;;;;;;;26.73;3.92;;;10.90;99.90;;;;;;5047642;28;20038;-71
2022/11/25 02:15:48;;;;;;;26.35;4.07;;;10.90;99.90;;;;;;5037901;28;20033;-73
2022/11/25 02:18:14;;;;;;;29.30;3.80;;;11.00;99.90;;;;;;5029102;28;20125;-71
2022/11/25 02:20:40;;;;;;;25.60;4.05;;;11.00;99.90;;;;;;5043683;28;20040;-73
2022/11/25 02:23:29;;;;;;;27.00;3.47;;;11.00;99.90;;;;;;5034887;28;20109;-71
2022/11/25 02:25:55;;;;;;;28.52;4.03;;;11.00;99.90;;;;;;5044301;28;20045;-72
2022/11/25 02:28:23;;;;;;;26.15;3.85;;;10.90;99.90;;;;;;5037009;28;20079;-73
2022/11/25 02:30:50;;;;;;;23.35;3.95;;;11.00;99.90;;;;;;5046230;28;20028;-72
2022/11/25 02:33:16;;;;;;;31.65;3.83;;;11.00;99.90;;;;;;5061152;28;20029;-72
2022/11/25 02:35:48;;;;;;;18.67;3.08;;;11.00;99.90;;;;;;5066495;28;20020;-72
2022/11/25 02:38:23;;;;;;;25.40;3.83;;;11.00;99.90;;;;;;5066309;28;20383;-74
2022/11/25 02:40:54;;;;;;;24.95;3.28;;;10.90;99.90;;;;;;5060538;28;20646;-71
2022/11/25 02:43:20;;;;;;;31.90;4.10;;;11.00;99.90;;;;;;5065696;28;20111;-71
2022/11/25 02:45:57;;;;;;;24.05;3.65;;;11.00;99.90;;;;;;5057620;28;20080;-74
2022/11/25 02:48:23;;;;;;;23.88;3.42;;;11.00;99.90;;;;;;5068836;28;20813;-72
2022/11/25 02:50:49;;;;;;;24.75;4.18;;;11.00;99.90;;;;;;5066457;28;20048;-71
2022/11/25 02:53:15;;;;;;;24.13;3.72;;;11.00;99.90;;;;;;5067653;28;20055;-72
2022/11/25 02:55:41;;;;;;;26.65;3.75;;;10.90;99.90;;;;;;5060515;28;20017;-72
2022/11/25 02:58:07;;;;;;;28.95;4.15;;;11.00;99.90;;;;;;5047160;28;20033;-73
2022/11/25 03:00:33;;;;;;;25.52;3.55;;;10.90;99.90;;;;;;5042963;28;20036;-72
2022/11/25 03:02:58;;;;;;;24.38;3.80;;;10.90;99.90;;;;;;5064366;28;20029;-72
2022/11/25 03:05:24;;;;;;;26.60;3.80;;;10.90;99.90;;;;;;5047146;28;20025;-73
2022/11/25 03:07:50;;;;;;;28.63;4.05;;;10.90;99.90;;;;;;5062351;28;20025;-72
2022/11/25 03:10:16;;;;;;;26.80;2.92;;;10.90;99.90;;;;;;5067232;28;20052;-73
2022/11/25 03:12:41;;;;;;;23.45;3.40;;;10.90;99.90;;;;;;5067875;28;20411;-70
2022/11/25 03:15:08;;;;;;;22.95;3.78;;;10.90;99.90;;;;;;5060971;28;20039;-74
2022/11/25 03:17:33;;;;;;;21.63;3.08;;;10.80;99.90;;;;;;5068119;28;20471;-73
2022/11/25 03:19:59;;;;;;;25.13;3.45;;;10.80;99.90;;;;;;5049005;28;20036;-73
2022/11/25 03:22:24;;;;;;;22.73;3.35;;;10.70;99.90;;;;;;5045078;28;20148;-74
2022/11/25 03:24:50;;;;;;;21.23;3.40;;;10.80;99.90;;;;;;5042114;28;20021;-73
2022/11/25 03:27:16;;;;;;;22.50;3.05;;;10.70;99.90;;;;;;5036213;28;20479;-72
2022/11/25 03:29:41;;;;;;;21.27;3.28;;;10.80;99.90;;;;;;5041853;28;20039;-72
2022/11/25 03:32:07;;;;;;;23.40;3.65;;;10.80;99.90;;;;;;5053073;28;20037;-71
2022/11/25 03:34:32;;;;;;;22.20;2.80;;;10.70;99.90;;;;;;5037378;28;20040;-71
2022/11/25 03:36:58;;;;;;;19.80;3.33;;;10.70;99.90;;;;;;5028909;28;20106;-72
2022/11/25 03:39:24;;;;;;;22.67;2.85;;;10.60;99.90;;;;;;5031309;28;20038;-71
2022/11/25 03:41:49;;;;;;;21.00;2.70;;;10.70;99.90;;;;;;5053221;28;20033;-71
2022/11/25 03:44:15;;;;;;;19.52;2.70;;;10.60;99.90;;;;;;5041094;28;20052;-71
2022/11/25 03:46:41;;;;;;;19.17;2.60;;;10.70;99.90;;;;;;5033126;28;20062;-72
2022/11/25 03:49:06;;;;;;;21.98;3.38;;;10.60;99.90;;;;;;5032447;28;20138;-71
2022/11/25 03:51:32;;;;;;;21.48;2.83;;;10.70;99.90;;;;;;5033926;28;20029;-72
2022/11/25 03:53:57;;;;;;;18.92;2.70;;;10.70;99.90;;;;;;5031034;28;20113;-72
2022/11/25 03:56:23;;;;;;;19.60;3.03;;;10.70;99.90;;;;;;5031940;28;20032;-73
2022/11/25 03:58:49;;;;;;;21.33;2.85;;;10.70;99.90;;;;;;5036096;28;20418;-71
2022/11/25 04:01:14;;;;;;;26.02;3.65;;;10.70;99.90;;;;;;5060766;28;20455;-72
2022/11/25 04:03:40;;;;;;;18.88;2.60;;;10.60;99.90;;;;;;5028799;28;20029;-71
2022/11/25 04:06:05;;;;;;;21.45;3.75;;;10.50;99.90;;;;;;5032110;28;20037;-73
2022/11/25 04:08:31;;;;;;;18.50;3.00;;;10.50;99.90;;;;;;5030420;28;20450;-72
2022/11/25 04:10:57;;;;;;;19.63;2.90;;;10.50;99.90;;;;;;5031577;28;20029;-71
2022/11/25 04:13:22;;;;;;;28.33;4.07;;;10.50;99.90;;;;;;5037737;28;20025;-72
2022/11/25 04:15:49;;;;;;;21.20;3.55;;;10.50;99.90;;;;;;5047774;28;20116;-73
2022/11/25 04:25:00;;;;;;;23.70;3.47;;;10.50;99.90;;;;;;5122069;27;20438;-71
2022/11/25 04:31:57;;;;;;;22.88;3.33;;;10.70;99.90;;;;;;5061214;28;20475;-72
2022/11/25 04:34:23;;;;;;;28.00;3.13;;;10.60;99.90;;;;;;5061644;28;20074;-71
2022/11/25 04:36:49;;;;;;;26.27;3.38;;;10.60;99.90;;;;;;5060939;28;20103;-71
2022/11/25 04:46:41;;;;;;;27.38;4.35;;;10.60;99.90;;;;;;5066868;28;20410;-72
2022/11/25 04:49:07;;;;;;;24.65;3.85;;;10.60;99.90;;;;;;5081208;28;20624;-71
2022/11/25 04:51:32;;;;;;;24.63;3.50;;;10.60;99.90;;;;;;5068744;28;20108;-72
2022/11/25 04:53:58;;;;;;;19.88;2.75;;;10.70;99.90;;;;;;5071145;28;20026;-71
2022/11/25 04:56:24;;;;;;;27.20;3.95;;;10.70;99.90;;;;;;5052050;28;20052;-71
2022/11/25 05:01:33;;;;;;;24.90;3.20;;;10.60;99.90;;;;;;5043769;28;20406;-71
2022/11/25 05:03:59;;;;;;;33.20;4.20;;;10.60;99.90;;;;;;5050760;28;20021;-71
2022/11/25 05:06:25;;;;;;;22.05;3.70;;;10.50;99.90;;;;;;5045320;28;20037;-71
2022/11/25 05:08:50;;;;;;;23.33;3.53;;;10.50;99.90;;;;;;5045716;28;20507;-72
2022/11/25 05:11:17;;;;;;;22.05;3.80;;;10.40;99.90;;;;;;5044507;28;20033;-71
2022/11/25 05:13:42;;;;;;;27.83;4.28;;;10.30;99.90;;;;;;5047183;28;20052;-71
2022/11/25 05:16:08;;;;;;;26.05;3.83;;;10.30;99.90;;;;;;5060961;28;20482;-72
2022/11/25 05:18:34;;;;;;;20.20;3.25;;;10.30;99.90;;;;;;5051008;28;20033;-70
2022/11/25 05:21:01;;;;;;;28.90;4.00;;;10.20;99.90;;;;;;5042660;28;20095;-71
2022/11/25 05:23:27;;;;;;;25.00;3.53;;;10.20;99.90;;;;;;5041797;28;20571;-71
2022/11/25 05:25:59;;;;;;;24.50;3.45;;;10.20;99.90;;;;;;5073761;28;20036;-71
2022/11/25 05:28:24;;;;;;;26.58;3.10;;;10.20;99.90;;;;;;5061742;28;20040;-71
2022/11/25 05:30:50;;;;;;;24.30;4.93;;;10.20;99.90;;;;;;5058517;28;20029;-70
2022/11/25 05:33:15;;;;;;;23.00;3.33;;;10.20;99.90;;;;;;5055586;28;20112;-71
2022/11/25 05:35:41;;;;;;;21.85;2.88;;;10.30;99.90;;;;;;5066046;28;20040;-71
2022/11/25 05:38:06;;;;;;;29.02;3.72;;;10.20;99.90;;;;;;5064892;28;20043;-70
2022/11/25 05:40:32;;;;;;;16.10;3.20;;;10.20;99.90;;;;;;5072090;28;20558;-71
2022/11/25 05:43:00;;;;;;;19.42;2.70;;;10.20;99.90;;;;;;5056734;28;20029;-70
2022/11/25 05:45:25;;;;;;;25.40;3.58;;;10.20;99.90;;;;;;5061444;28;20032;-69
2022/11/25 05:47:51;;;;;;;22.35;4.20;;;10.10;99.90;;;;;;5091931;28;20116;-71
2022/11/25 05:50:17;;;;;;;20.30;2.88;;;10.10;99.90;;;;;;5059645;28;20049;-72
2022/11/25 05:52:42;;;;;;;22.02;4.18;;;10.10;99.90;;;;;;5063496;28;20029;-72
2022/11/25 05:55:08;;;;;;;18.02;3.25;;;10.10;99.90;;;;;;5067882;28;20036;-72
2022/11/25 05:57:34;;;;;;;23.30;3.47;;;10.20;99.90;;;;;;5051205;28;20036;-71
2022/11/25 05:59:59;;;;;;;23.80;3.22;;;10.30;99.90;;;;;;5039131;28;20037;-72
2022/11/25 06:02:25;;;;;;;23.92;3.85;;;10.30;99.90;;;;;;5044867;28;20128;-72
2022/11/25 06:04:50;;;;;;;21.42;2.97;;;10.30;99.90;;;;;;5048554;28;20052;-72
2022/11/25 06:07:16;;;;;;;19.98;3.15;;;10.30;99.90;;;;;;5032438;28;20387;-73
2022/11/25 06:09:41;;;;;;;22.90;3.60;;;10.30;99.90;;;;;;5034573;28;20041;-71
2022/11/25 06:12:07;;;;;;;22.13;3.35;;;10.40;99.90;;;;;;5040365;28;20032;-72
2022/11/25 06:14:32;;;;;;;21.13;2.90;;;10.30;99.90;;;;;;5048321;28;20385;-72
2022/11/25 06:16:58;;;;;;;22.08;2.70;;;10.40;99.90;;;;;;5068723;28;20028;-71
2022/11/25 06:19:24;;;;;;;23.27;3.53;;;10.30;99.90;;;;;;5065638;28;20057;-70
2022/11/25 06:21:49;;;;;;;24.77;3.67;;;10.20;99.90;;;;;;5056988;28;20114;-73
2022/11/25 06:24:15;;;;;;;17.88;3.15;;;10.20;99.90;;;;;;5059075;28;20067;-71
2022/11/25 06:26:40;;;;;;;24.58;3.00;;;10.20;99.90;;;;;;5055316;28;20469;-71
2022/11/25 06:29:06;;;;;;;19.25;3.50;;;10.10;99.90;;;;;;5044023;28;20094;-73
2022/11/25 06:31:32;;;;;;;19.83;3.15;;;10.10;99.90;;;;;;5060416;28;20059;-72
2022/11/25 06:33:57;;;;;;;19.25;4.38;;;10.00;99.90;;;;;;5039707;28;20030;-71
2022/11/25 06:36:23;;;;;;;20.83;2.83;;;10.00;99.90;;;;;;5046437;28;20111;-72
2022/11/25 06:38:52;;;;;;;20.33;2.97;;;10.00;99.90;;;;;;5047942;28;20025;-71
2022/11/25 06:41:18;;;;;;;20.58;2.80;;;9.90;99.90;;;;;;5049701;28;20036;-71
2022/11/25 06:43:43;;;;;;;22.30;3.40;;;9.90;99.90;;;;;;5067119;28;20024;-71
2022/11/25 06:46:14;;;;;;;23.52;3.45;;;9.90;99.90;;;;;;5057033;28;20068;-72
2022/11/25 06:48:40;;;;;;;20.52;3.40;;;9.90;99.90;;;;;;5035231;28;20032;-71
2022/11/25 06:51:08;;;;;;;15.60;2.10;;;9.90;99.90;;;;;;5043630;28;20030;-72
2022/11/25 06:53:35;;;;;;;22.02;3.15;;;10.00;99.90;;;;;;5028742;28;20030;-71
2022/11/25 06:56:13;;;;;;;19.58;2.78;;;10.00;99.90;;;;;;5027374;28;20053;-70
2022/11/25 06:58:39;;;;;;;20.83;2.50;;;10.00;99.90;;;;;;5035589;28;20029;-71
2022/11/25 07:01:10;;;;;;;23.83;2.50;;;10.00;99.90;;;;;;5030812;28;20035;-72
2022/11/25 07:03:36;;;;;;;18.58;2.70;;;9.90;99.90;;;;;;5039400;28;20035;-70
2022/11/25 07:06:02;;;;;;;22.98;3.28;;;9.90;99.90;;;;;;5046406;28;20045;-70
2022/11/25 07:08:28;;;;;;;19.65;3.17;;;9.90;99.90;;;;;;5032296;28;20136;-73
2022/11/25 07:10:54;;;;;;;18.05;3.53;;;10.00;99.90;;;;;;5046825;28;20021;-72
2022/11/25 07:13:20;;;;;;;11.82;2.40;;;9.90;99.90;;;;;;5046665;28;20044;-71
2022/11/25 07:15:46;;;;;;;20.25;3.42;;;9.90;99.90;;;;;;5042044;28;20049;-72
2022/11/25 07:18:12;;;;;;;15.82;2.53;;;9.80;99.90;;;;;;5039754;28;20383;-73
2022/11/25 07:20:38;;;;;;;12.02;2.47;;;9.80;99.90;;;;;;5038155;28;20104;-71
2022/11/25 07:23:04;;;;;;;19.67;2.30;;;9.80;99.90;;;;;;5043816;28;20068;-71
2022/11/25 07:25:31;;;;;;;20.08;2.58;;;9.80;99.90;;;;;;5035747;28;20061;-71
2022/11/25 07:27:57;;;;;;;12.85;2.42;;;9.80;99.90;;;;;;5031216;28;20090;-71
2022/11/25 07:30:22;;;;;;;18.42;2.67;;;9.80;99.90;;;;;;5040362;28;20471;-71
2022/11/25 07:32:48;;;;;;;10.27;1.60;;;9.80;99.90;;;;;;5035882;28;20621;-71
2022/11/25 07:35:14;;;;;;;17.83;2.58;;;9.80;99.90;;;;;;5033769;28;20037;-70
2022/11/25 07:37:39;;;;;;;18.30;2.78;;;9.70;99.90;;;;;;5043788;28;20387;-70
2022/11/25 07:40:05;;;;;;;15.05;2.78;;;9.70;99.90;;;;;;5038583;28;20422;-69
2022/11/25 07:42:32;;;;;;;20.33;2.33;;;9.70;99.90;;;;;;5038154;28;20609;-70
2022/11/25 07:44:57;;;;;;;15.68;2.35;;;9.80;99.90;;;;;;5037283;28;20037;-72
2022/11/25 07:47:24;;;;;;;11.60;1.92;;;9.80;99.90;;;;;;5033865;28;20387;-70
2022/11/25 07:49:49;;;;;;;16.83;2.25;;;9.80;99.90;;;;;;5037579;28;20029;-70
2022/11/25 07:52:15;;;;;;;15.25;2.47;;;9.80;99.90;;;;;;5036244;28;20038;-71
2022/11/25 07:54:41;;;;;;;18.23;2.40;;;9.70;99.90;;;;;;5034348;28;20113;-70
2022/11/25 07:57:06;;;;;;;18.17;2.90;;;9.70;99.90;;;;;;5033107;28;20119;-71
2022/11/25 07:59:32;;;;;;;21.10;2.58;;;9.70;99.90;;;;;;5047170;28;20041;-70
2022/11/25 08:01:57;;;;;;;14.13;2.10;;;9.70;99.90;;;;;;5044514;28;20035;-71
2022/11/25 08:04:23;;;;;;;16.77;2.20;;;9.60;99.90;;;;;;5035076;28;20876;-71
2022/11/25 08:06:51;;;;;;;15.80;2.38;;;9.60;99.90;;;;;;5035660;28;20033;-70
2022/11/25 08:09:19;;;;;;;12.23;2.22;;;9.70;99.90;;;;;;5038047;28;20110;-71
2022/11/25 08:11:46;;;;;;;18.63;2.10;;;9.70;99.90;;;;;;5045357;28;20040;-71
2022/11/25 08:14:12;;;;;;;13.35;2.20;;;9.70;99.90;;;;;;5042949;28;20494;-70
2022/11/25 08:16:38;;;;;;;10.95;1.80;;;9.80;99.90;;;;;;5043935;28;20033;-71
2022/11/25 08:19:06;;;;;;;13.63;2.08;;;9.80;99.90;;;;;;5035036;28;20017;-71
2022/11/25 08:21:32;;;;;;;10.63;2.05;;;9.80;99.90;;;;;;5038506;28;20037;-71
2022/11/25 08:23:57;;;;;;;12.60;1.92;;;9.90;99.90;;;;;;5043126;28;20123;-71
2022/11/25 08:26:36;;;;;;;11.35;1.77;;;9.90;99.90;;;;;;5045235;28;20041;-71
2022/11/25 08:29:03;;;;;;;15.20;1.88;;;9.90;99.90;;;;;;5043084;28;20075;-70
2022/11/25 08:31:34;;;;;;;16.73;2.35;;;10.00;99.90;;;;;;5046246;28;20025;-71
2022/11/25 08:34:00;;;;;;;14.48;2.35;;;10.00;99.90;;;;;;5034615;28;20051;-69
2022/11/25 08:36:27;;;;;;;12.27;2.10;;;10.10;99.90;;;;;;5025724;28;20407;-70
2022/11/25 08:38:56;;;;;;;15.82;2.30;;;10.10;99.90;;;;;;5045618;28;20033;-73
2022/11/25 08:41:33;;;;;;;12.63;2.00;;;10.10;99.90;;;;;;5046004;28;20044;-70
2022/11/25 08:44:01;;;;;;;13.30;1.85;;;10.10;99.90;;;;;;5027778;28;20034;-70
2022/11/25 08:46:29;;;;;;;10.48;2.13;;;10.20;99.90;;;;;;5044499;28;20032;-70
2022/11/25 08:48:55;;;;;;;10.32;1.65;;;10.30;99.90;;;;;;5065578;28;20393;-71
2022/11/25 08:51:24;;;;;;;15.27;1.90;;;10.40;99.90;;;;;;5046894;28;20259;-71
2022/11/25 08:53:50;;;;;;;12.50;1.88;;;10.50;99.90;;;;;;5033696;28;20029;-70
2022/11/25 08:56:17;;;;;;;13.82;2.03;;;10.70;99.90;;;;;;5034375;28;20037;-70
2022/11/25 08:58:43;;;;;;;13.55;2.00;;;11.00;99.90;;;;;;5039681;28;20478;-72
2022/11/25 09:01:10;;;;;;;11.15;1.90;;;11.30;99.90;;;;;;5037344;28;20026;-70
2022/11/25 09:03:39;;;;;;;14.18;2.05;;;11.50;99.90;;;;;;5026741;28;20041;-72
2022/11/25 09:06:05;;;;;;;11.37;1.90;;;11.90;99.90;;;;;;5034723;28;20541;-72
2022/11/25 09:08:31;;;;;;;10.18;1.55;;;12.20;99.90;;;;;;5040480;28;20284;-73
2022/11/25 09:10:57;;;;;;;12.23;2.30;;;12.40;99.90;;;;;;5042332;28;20070;-70
2022/11/25 09:13:23;;;;;;;12.88;2.08;;;12.80;99.90;;;;;;5030361;28;20033;-71
2022/11/25 09:15:49;;;;;;;14.20;2.67;;;13.50;99.90;;;;;;5040300;28;20469;-70
2022/11/25 09:18:15;;;;;;;13.23;2.30;;;14.20;99.90;;;;;;5034383;28;20043;-73
2022/11/25 09:20:41;;;;;;;10.35;1.73;;;14.60;99.90;;;;;;5030082;28;20112;-73
2022/11/25 09:23:07;;;;;;;14.13;2.35;;;14.50;99.90;;;;;;5030575;28;20112;-73
2022/11/25 09:25:34;;;;;;;12.55;2.05;;;14.40;99.90;;;;;;5029000;28;20041;-73
2022/11/25 09:28:00;;;;;;;11.57;1.90;;;14.10;99.90;;;;;;5043269;28;20021;-72
2022/11/25 09:30:26;;;;;;;15.50;2.45;;;14.10;99.90;;;;;;5044872;28;20087;-72
2022/11/25 09:32:53;;;;;;;10.50;2.30;;;14.20;99.90;;;;;;5047393;28;20061;-72
2022/11/25 09:35:21;;;;;;;10.20;1.90;;;14.10;99.90;;;;;;5050509;28;20045;-73
2022/11/25 09:37:47;;;;;;;13.77;2.97;;;14.20;99.90;;;;;;5045442;28;20747;-73
2022/11/25 09:40:39;;;;;;;9.70;1.90;;;13.90;99.90;;;;;;5036720;28;20033;-73
2022/11/25 09:46:44;;;;;;;13.80;2.22;;;14.80;99.90;;;;;;5034596;28;20055;-72
2022/11/25 09:49:57;;;;;;;11.35;2.45;;;14.80;99.90;;;;;;5028889;28;20064;-73
2022/11/25 09:52:52;;;;;;;10.40;1.95;;;14.90;99.10;;;;;;5031636;28;20030;-73
2022/11/25 09:55:23;;;;;;;9.68;1.70;;;15.10;96.00;;;;;;5033948;28;20045;-73
2022/11/25 09:58:00;;;;;;;10.10;1.95;;;15.10;95.80;;;;;;5028431;28;20514;-72
2022/11/25 10:00:48;;;;;;;13.48;2.42;;;14.60;99.90;;;;;;5028956;28;20022;-73
2022/11/25 10:03:36;;;;;;;14.07;2.00;;;14.00;99.90;;;;;;5029309;28;20021;-73
2022/11/25 10:06:06;;;;;;;13.57;2.30;;;13.70;99.90;;;;;;5060804;28;20618;-72
2022/11/25 10:08:39;;;;;;;11.85;2.05;;;13.60;99.90;;;;;;5029635;28;20033;-72
2022/11/25 10:11:26;;;;;;;14.05;2.47;;;13.10;99.90;;;;;;5041271;28;20040;-73
2022/11/25 10:14:04;;;;;;;12.18;2.08;;;12.70;99.90;;;;;;5030815;28;20610;-73
2022/11/25 10:16:45;;;;;;;13.73;1.95;;;13.30;99.90;;;;;;5037705;28;20041;-72
2022/11/25 10:19:23;;;;;;;14.35;2.33;;;13.60;99.90;;;;;;5034737;28;20036;-72
2022/11/25 10:21:49;;;;;;;13.73;2.22;;;13.50;99.90;;;;;;5046523;28;20029;-71
2022/11/25 10:24:16;;;;;;;10.23;2.45;;;13.30;99.90;;;;;;5042679;28;20035;-73
2022/11/25 10:26:51;;;;;;;12.98;1.98;;;13.20;99.90;;;;;;5027421;28;20041;-72
2022/11/25 10:31:35;;;;;;;16.83;2.45;;;13.10;99.90;;;;;;5103730;27;20848;-71
2022/11/25 10:34:04;;;;;;;12.05;2.00;;;13.00;99.90;;;;;;5098332;28;20062;-71
2022/11/25 10:36:32;;;;;;;13.07;2.28;;;13.10;99.90;;;;;;5082547;28;20039;-71
2022/11/25 10:39:12;;;;;;;16.98;2.28;;;13.10;99.90;;;;;;5090420;28;20094;-71
2022/11/25 10:41:49;;;;;;;;;;;13.00;99.90;;;;;;5093239;28;20089;-70
2022/11/25 10:44:28;;;;;;;10.13;1.83;;;13.10;99.90;;;;;;5082868;28;19957;-71
2022/11/25 10:46:56;;;;;;;13.13;2.35;;;13.10;99.90;;;;;;5083914;28;20073;-71
2022/11/25 10:49:42;;;;;;;11.60;1.80;;;13.20;99.90;;;;;;5099131;28;20039;-72
2022/11/25 10:52:12;;;;;;;13.07;2.08;;;13.20;99.90;;;;;;5083306;28;20032;-71
2022/11/25 10:54:38;;;;;;;11.82;2.30;;;13.20;99.90;;;;;;5098863;28;20032;-70
2022/11/25 10:57:19;;;;;;;13.85;2.22;;;13.30;99.90;;;;;;5096996;28;20031;-71
2022/11/25 10:59:55;;;;;;;11.50;1.80;;;13.50;99.90;;;;;;5095609;28;20044;-72
2022/11/25 11:02:38;;;;;;;10.43;1.80;;;13.80;99.90;;;;;;5102481;28;20024;-73
2022/11/25 11:05:09;;;;;;;11.15;2.00;;;14.20;99.90;;;;;;5103835;28;20439;-71
2022/11/25 11:07:41;;;;;;;14.43;2.67;;;14.70;98.50;;;;;;5099202;28;20107;-72
2022/11/25 11:10:18;;;;;;;16.90;2.30;;;14.90;98.00;;;;;;5083075;28;20024;-72
2022/11/25 11:13:15;;;;;;;8.63;1.92;;;15.10;96.50;;;;;;5082851;28;20028;-72
2022/11/25 11:15:41;;;;;;;13.48;1.77;;;15.20;96.90;;;;;;5079455;28;20090;-72
2022/11/25 11:18:18;;;;;;;13.95;1.70;;;15.20;99.90;;;;;;5083283;28;20643;-71
2022/11/25 11:20:47;;;;;;;11.57;2.38;;;15.30;95.80;;;;;;5083029;28;20032;-71
2022/11/25 11:23:13;;;;;;;15.27;2.65;;;15.30;93.60;;;;;;5082918;28;20093;-72
2022/11/25 11:25:52;;;;;;;12.45;2.20;;;15.20;95.10;;;;;;5086848;28;20043;-72
2022/11/25 11:28:36;;;;;;;11.65;2.10;;;14.70;97.50;;;;;;5103353;28;20132;-73
2022/11/25 11:31:16;;;;;;;12.98;2.35;;;14.00;99.90;;;;;;5097930;28;20075;-72
2022/11/25 11:34:20;;;;;;;;;;;13.90;99.90;;;;;;5098291;28;20119;-71
2022/11/25 11:37:16;;;;;;;11.85;2.33;;;13.70;99.90;;;;;;5079829;28;19911;-72
2022/11/25 11:40:12;;;;;;;13.70;2.00;;;13.50;99.90;;;;;;5080003;28;20550;-72
2022/11/25 11:43:01;;;;;;;11.63;1.83;;;13.40;99.90;;;;;;5078086;28;20566;-71
2022/11/25 11:45:54;;;;;;;16.38;2.47;;;13.30;99.90;;;;;;5068874;28;20024;-72
2022/11/25 11:48:20;;;;;;;13.50;3.10;;;13.30;99.90;;;;;;5068677;28;20103;-71
2022/11/25 11:51:01;;;;;;;15.90;2.45;;;13.30;99.90;;;;;;5068791;28;20085;-72
2022/11/25 11:53:33;;;;;;;17.25;2.40;;;13.30;99.90;;;;;;5069117;28;20040;-71
2022/11/25 11:56:25;;;;;;;15.40;2.78;;;13.30;99.90;;;;;;5083786;28;20394;-72
2022/11/25 11:59:16;;;;;;;14.30;3.40;;;13.30;99.90;;;;;;5060539;28;20364;-71
2022/11/25 12:02:13;;;;;;;15.75;2.70;;;13.30;99.90;;;;;;5069240;28;20453;-72
2022/11/25 12:04:51;;;;;;;15.88;2.42;;;13.30;99.90;;;;;;5054247;28;20729;-72
2022/11/25 12:07:20;;;;;;;13.63;2.17;;;13.40;99.90;;;;;;5068400;28;20024;-72
2022/11/25 12:09:58;;;;;;;16.33;2.40;;;13.40;99.90;;;;;;5068927;28;20037;-72
2022/11/25 12:12:38;;;;;;;17.15;2.75;;;13.40;99.90;;;;;;5068218;28;20036;-71
2022/11/25 12:15:16;;;;;;;12.98;2.22;;;13.40;99.90;;;;;;5084887;28;20140;-72
2022/11/25 12:17:48;;;;;;;11.93;1.73;;;13.40;99.90;;;;;;5088367;28;20028;-72
2022/11/25 12:20:36;;;;;;;14.25;2.05;;;13.40;99.90;;;;;;5087652;28;20115;-71
2022/11/25 12:23:09;;;;;;;13.30;2.00;;;13.40;99.90;;;;;;5088305;28;20035;-72
2022/11/25 12:25:39;;;;;;;11.45;1.83;;;13.40;99.90;;;;;;5089058;28;20057;-71
2022/11/25 12:28:23;;;;;;;;;;;13.40;99.90;;;;;;5089312;28;20028;-71
2022/11/25 12:31:27;;;;;;;9.48;1.67;;;13.40;99.90;;;;;;5088410;28;19916;-72
2022/11/25 12:34:26;;;;;;;13.57;1.83;;;13.40;99.90;;;;;;5087763;28;20440;-71
2022/11/25 12:37:01;;;;;;;9.63;1.48;;;13.40;99.90;;;;;;5086776;28;20067;-71
2022/11/25 12:39:44;;;;;;;11.45;1.67;;;13.40;99.90;;;;;;5086689;28;20567;-71
2022/11/25 12:42:20;;;;;;;12.30;1.92;;;13.40;99.90;;;;;;5086860;28;20594;-72
2022/11/25 12:45:07;;;;;;;9.55;1.83;;;13.50;99.90;;;;;;5087030;28;20165;-71
2022/11/25 12:47:33;;;;;;;13.35;1.73;;;13.50;99.90;;;;;;5087133;28;20024;-72
2022/11/25 12:49:59;;;;;;;11.38;1.38;;;13.60;99.90;;;;;;5087197;28;20024;-73
2022/11/25 12:53:11;;;;;;;11.10;1.70;;;13.60;99.90;;;;;;5088002;28;20067;-71
2022/11/25 12:55:37;;;;;;;12.45;2.03;;;13.70;99.90;;;;;;5086982;28;20044;-71
2022/11/25 12:58:48;;;;;;;11.35;1.63;;;13.90;99.90;;;;;;5088888;28;20470;-72
2022/11/25 13:01:36;;;;;;;14.65;2.03;;;13.90;99.90;;;;;;5044459;28;20029;-71
2022/11/25 13:08:31;;;;;;;11.73;2.33;;;13.80;99.90;;;;;;5063727;28;20476;-73
2022/11/25 13:18:47;;;;;;;9.38;1.70;;;13.70;99.90;;;;;;5110354;27;20388;-71
2022/11/25 13:21:14;;;;;;;10.23;1.60;;;13.70;99.90;;;;;;5104655;28;20093;-72
2022/11/25 13:23:55;;;;;;;11.40;1.67;;;13.80;99.90;;;;;;5104630;28;20032;-72
2022/11/25 13:26:33;;;;;;;12.98;2.03;;;13.90;97.10;;;;;;5104808;28;20031;-71
2022/11/25 13:29:24;;;;;;;13.23;2.25;;;14.00;99.60;;;;;;5103041;28;20031;-72
2022/11/25 13:32:01;;;;;;;9.75;1.83;;;14.40;99.90;;;;;;5075761;28;20097;-72
2022/11/25 13:34:30;;;;;;;10.25;2.00;;;14.60;99.00;;;;;;5104180;28;20065;-71
2022/11/25 13:37:00;;;;;;;10.98;2.05;;;15.40;96.10;;;;;;5104275;28;20031;-73
2022/11/25 13:39:34;;;;;;;13.57;2.25;;;15.40;95.70;;;;;;5104169;28;20031;-72